KFAY/FAY METAR and TAF weather

Enter ICAO airport designator
Station Type Date Time Source
KFAY METAR 2019/02/17 08:08 UTC NOAA

KFAY 170808Z 05004KT 10SM SCT012 OVC070 04/02 A3001 RMK AO2 T00390017 $


Station Type Date Time Source
KFAY Decoded METAR 2019/02/17 08:08 UTC NOAA

FAYETTEVILLE REGIONAL AIRPORT , NC, United States (KFAY) 34-59N 078-53W 55M
Feb 17, 2019 - 03:08 AM EST / 2019.02.17 0808 UTC
Wind: from the NE (050 degrees) at 5 MPH (4 KT):0
Visibility: 10 mile(s):0
Sky conditions: overcast
Temperature: 39.0 F (3.9 C)
Dew Point: 35.1 F (1.7 C)
Relative Humidity: 85%
Pressure (altimeter): 30.01 in. Hg (1016 hPa)
ob: KFAY 170808Z 05004KT 10SM SCT012 OVC070 04/02 A3001 RMK AO2 T00390017
cycle: 8

Station Type Date Time Source
KFAY TAF 2019/02/17 06:36 UTC NOAA

TAF KFAY 170533Z 1706/1806 05005KT P6SM OVC015
FM170900 05005KT P6SM SCT025 BKN050
FM171800 08005KT P6SM OVC015
FM172100 VRB04KT 3SM BR OVC004
FM180000 05005KT 1 1/2SM -RA BR OVC007
FM180400 VRB05KT 1 1/2SM -RA BR OVC004


Example: see airport list